Long, Mississippi
Current Conditions -  °F | °C
As of 5:53 AM on Sunday 21 Dec 2014 (Local Time) from KGLH Reporting Station
Haze Haze  
Wind Chill: 30°   Ceiling: Unl
Heat Index: 34°   Visibility: 6mi
Dew Point: 32°   Wind: 5mph
Humidity: 92%   Direction: 70°ENE
Pressure: 30.17"   Gusts: NA
Location:  33.4469°N, 90.8665°W
Report Text: KGLH 211153Z AUTO 07004KT 6SM BR CLR 01/00 A3017 RMK AO2 SLP226 T00110000 10033 20011 55007
Loading
Personal Weather Stations






























Interactive Weather Map New forecast layout! Learn more

10-Day Weather Forecast

Advertisements
Track Severe Weather on mobile